sensor_id;sensor_type;location;lat;lon;timestamp;temperature;humidity
56729;DHT22;42612;52.232;7.560;2022-12-18T00:00:58;1.00;53.40
56729;DHT22;42612;52.232;7.560;2022-12-18T00:03:24;1.00;54.00
56729;DHT22;42612;52.232;7.560;2022-12-18T00:05:51;1.00;53.30
56729;DHT22;42612;52.232;7.560;2022-12-18T00:08:17;1.00;53.40
56729;DHT22;42612;52.232;7.560;2022-12-18T00:10:43;0.90;53.20
56729;DHT22;42612;52.232;7.560;2022-12-18T00:13:09;0.90;53.20
56729;DHT22;42612;52.232;7.560;2022-12-18T00:15:36;0.90;53.00
56729;DHT22;42612;52.232;7.560;2022-12-18T00:18:02;0.90;53.00
56729;DHT22;42612;52.232;7.560;2022-12-18T00:20:28;0.80;53.00
56729;DHT22;42612;52.232;7.560;2022-12-18T00:22:54;0.80;53.00
56729;DHT22;42612;52.232;7.560;2022-12-18T00:25:20;0.80;53.00
56729;DHT22;42612;52.232;7.560;2022-12-18T00:27:46;0.80;53.00
56729;DHT22;42612;52.232;7.560;2022-12-18T00:30:12;0.70;52.80
56729;DHT22;42612;52.232;7.560;2022-12-18T00:32:37;0.70;52.80
56729;DHT22;42612;52.232;7.560;2022-12-18T00:35:03;0.70;52.60
56729;DHT22;42612;52.232;7.560;2022-12-18T00:37:30;0.70;52.50
56729;DHT22;42612;52.232;7.560;2022-12-18T00:39:55;0.70;52.50
56729;DHT22;42612;52.232;7.560;2022-12-18T00:42:21;0.70;52.70
56729;DHT22;42612;52.232;7.560;2022-12-18T00:45:05;0.70;52.60
56729;DHT22;42612;52.232;7.560;2022-12-18T00:47:31;0.70;52.80
56729;DHT22;42612;52.232;7.560;2022-12-18T00:49:57;0.70;52.90
56729;DHT22;42612;52.232;7.560;2022-12-18T00:52:22;0.60;52.70
56729;DHT22;42612;52.232;7.560;2022-12-18T00:54:48;0.60;52.70
56729;DHT22;42612;52.232;7.560;2022-12-18T00:57:14;0.60;52.70
56729;DHT22;42612;52.232;7.560;2022-12-18T00:59:39;0.60;52.60
56729;DHT22;42612;52.232;7.560;2022-12-18T01:02:05;0.60;52.50
56729;DHT22;42612;52.232;7.560;2022-12-18T01:04:31;0.50;52.30
56729;DHT22;42612;52.232;7.560;2022-12-18T01:06:57;0.50;52.30
56729;DHT22;42612;52.232;7.560;2022-12-18T01:09:23;0.50;52.40
56729;DHT22;42612;52.232;7.560;2022-12-18T01:11:48;0.50;52.50
56729;DHT22;42612;52.232;7.560;2022-12-18T01:14:14;0.50;52.40
56729;DHT22;42612;52.232;7.560;2022-12-18T01:16:40;0.50;52.40
56729;DHT22;42612;52.232;7.560;2022-12-18T01:19:06;0.40;52.30
56729;DHT22;42612;52.232;7.560;2022-12-18T01:21:31;0.40;52.40
56729;DHT22;42612;52.232;7.560;2022-12-18T01:23:57;0.40;52.40
56729;DHT22;42612;52.232;7.560;2022-12-18T01:26:23;0.40;52.40
56729;DHT22;42612;52.232;7.560;2022-12-18T01:28:49;0.40;52.50
56729;DHT22;42612;52.232;7.560;2022-12-18T01:31:19;0.40;52.50
56729;DHT22;42612;52.232;7.560;2022-12-18T01:33:47;0.40;52.30
56729;DHT22;42612;52.232;7.560;2022-12-18T01:36:17;0.40;52.30
56729;DHT22;42612;52.232;7.560;2022-12-18T01:38:53;0.40;52.30
56729;DHT22;42612;52.232;7.560;2022-12-18T01:41:20;0.30;52.20
56729;DHT22;42612;52.232;7.560;2022-12-18T01:46:19;0.30;52.10
56729;DHT22;42612;52.232;7.560;2022-12-18T01:48:51;0.30;52.10
56729;DHT22;42612;52.232;7.560;2022-12-18T01:51:20;0.30;52.00
56729;DHT22;42612;52.232;7.560;2022-12-18T01:53:45;0.30;52.80
56729;DHT22;42612;52.232;7.560;2022-12-18T01:56:14;0.30;52.30
56729;DHT22;42612;52.232;7.560;2022-12-18T02:01:26;0.30;52.40
56729;DHT22;42612;52.232;7.560;2022-12-18T02:03:52;0.30;52.40
56729;DHT22;42612;52.232;7.560;2022-12-18T02:06:23;0.20;52.20
56729;DHT22;42612;52.232;7.560;2022-12-18T02:09:06;0.20;52.40
56729;DHT22;42612;52.232;7.560;2022-12-18T02:11:53;0.30;52.40
56729;DHT22;42612;52.232;7.560;2022-12-18T02:15:02;0.20;52.30
56729;DHT22;42612;52.232;7.560;2022-12-18T02:17:36;0.20;52.20
56729;DHT22;42612;52.232;7.560;2022-12-18T02:25:40;0.20;52.20
56729;DHT22;42612;52.232;7.560;2022-12-18T02:28:28;0.20;52.20
56729;DHT22;42612;52.232;7.560;2022-12-18T02:30:57;0.20;52.10
56729;DHT22;42612;52.232;7.560;2022-12-18T02:33:26;0.20;52.00
56729;DHT22;42612;52.232;7.560;2022-12-18T02:35:52;0.20;52.10
56729;DHT22;42612;52.232;7.560;2022-12-18T02:38:19;0.10;52.00
56729;DHT22;42612;52.232;7.560;2022-12-18T02:40:45;0.10;51.90
56729;DHT22;42612;52.232;7.560;2022-12-18T02:43:12;0.10;51.90
56729;DHT22;42612;52.232;7.560;2022-12-18T02:45:46;0.10;51.90
56729;DHT22;42612;52.232;7.560;2022-12-18T02:48:13;0.10;52.00
56729;DHT22;42612;52.232;7.560;2022-12-18T02:50:40;0.10;52.10
56729;DHT22;42612;52.232;7.560;2022-12-18T02:53:28;0.10;52.00
56729;DHT22;42612;52.232;7.560;2022-12-18T02:58:37;0.10;51.90
56729;DHT22;42612;52.232;7.560;2022-12-18T03:01:30;0.00;51.80
56729;DHT22;42612;52.232;7.560;2022-12-18T03:04:12;0.00;51.80
56729;DHT22;42612;52.232;7.560;2022-12-18T03:06:43;0.00;51.90
56729;DHT22;42612;52.232;7.560;2022-12-18T03:09:14;0.00;51.90
56729;DHT22;42612;52.232;7.560;2022-12-18T03:11:46;0.00;51.90
56729;DHT22;42612;52.232;7.560;2022-12-18T03:14:34;0.00;52.10
56729;DHT22;42612;52.232;7.560;2022-12-18T03:17:02;0.00;52.00
56729;DHT22;42612;52.232;7.560;2022-12-18T03:19:29;0.00;52.00
56729;DHT22;42612;52.232;7.560;2022-12-18T03:21:57;0.00;52.20
56729;DHT22;42612;52.232;7.560;2022-12-18T03:24:26;0.00;52.20
56729;DHT22;42612;52.232;7.560;2022-12-18T03:26:54;0.00;52.10
56729;DHT22;42612;52.232;7.560;2022-12-18T03:29:25;0.00;52.00
56729;DHT22;42612;52.232;7.560;2022-12-18T03:32:02;0.00;52.10
56729;DHT22;42612;52.232;7.560;2022-12-18T03:34:32;0.00;52.00
56729;DHT22;42612;52.232;7.560;2022-12-18T03:36:59;0.00;52.10
56729;DHT22;42612;52.232;7.560;2022-12-18T03:39:27;0.00;52.20
56729;DHT22;42612;52.232;7.560;2022-12-18T03:49:44;0.00;52.10
56729;DHT22;42612;52.232;7.560;2022-12-18T03:52:30;0.00;52.20
56729;DHT22;42612;52.232;7.560;2022-12-18T03:55:00;0.00;52.20
56729;DHT22;42612;52.232;7.560;2022-12-18T03:57:28;0.10;52.20
56729;DHT22;42612;52.232;7.560;2022-12-18T03:59:56;0.00;52.10
56729;DHT22;42612;52.232;7.560;2022-12-18T04:02:23;0.00;52.10
56729;DHT22;42612;52.232;7.560;2022-12-18T04:04:51;0.00;52.10
56729;DHT22;42612;52.232;7.560;2022-12-18T04:07:17;0.10;52.10
56729;DHT22;42612;52.232;7.560;2022-12-18T04:09:43;0.00;52.10
56729;DHT22;42612;52.232;7.560;2022-12-18T04:12:11;0.00;52.10
56729;DHT22;42612;52.232;7.560;2022-12-18T04:14:36;0.00;52.10
56729;DHT22;42612;52.232;7.560;2022-12-18T04:17:02;0.00;52.10
56729;DHT22;42612;52.232;7.560;2022-12-18T04:19:28;0.00;52.20
56729;DHT22;42612;52.232;7.560;2022-12-18T04:21:54;0.00;52.20
56729;DHT22;42612;52.232;7.560;2022-12-18T04:24:19;0.00;52.30
56729;DHT22;42612;52.232;7.560;2022-12-18T04:26:45;0.00;52.20
56729;DHT22;42612;52.232;7.560;2022-12-18T04:29:11;0.00;52.20
56729;DHT22;42612;52.232;7.560;2022-12-18T04:31:36;0.00;52.30
56729;DHT22;42612;52.232;7.560;2022-12-18T04:34:02;0.00;52.40
56729;DHT22;42612;52.232;7.560;2022-12-18T04:36:28;0.00;52.50
56729;DHT22;42612;52.232;7.560;2022-12-18T04:38:54;0.10;52.60
56729;DHT22;42612;52.232;7.560;2022-12-18T04:41:19;0.10;52.50
56729;DHT22;42612;52.232;7.560;2022-12-18T04:43:45;0.10;52.50
56729;DHT22;42612;52.232;7.560;2022-12-18T04:46:10;0.10;52.30
56729;DHT22;42612;52.232;7.560;2022-12-18T04:48:36;0.10;52.40
56729;DHT22;42612;52.232;7.560;2022-12-18T04:51:03;0.10;52.40
56729;DHT22;42612;52.232;7.560;2022-12-18T04:53:29;0.10;52.50
56729;DHT22;42612;52.232;7.560;2022-12-18T04:58:37;0.20;52.40
56729;DHT22;42612;52.232;7.560;2022-12-18T05:01:11;0.20;52.50
56729;DHT22;42612;52.232;7.560;2022-12-18T05:03:38;0.20;52.50
56729;DHT22;42612;52.232;7.560;2022-12-18T05:06:04;0.20;52.50
56729;DHT22;42612;52.232;7.560;2022-12-18T05:08:31;0.20;52.50
56729;DHT22;42612;52.232;7.560;2022-12-18T05:11:11;0.20;52.40
56729;DHT22;42612;52.232;7.560;2022-12-18T05:13:40;0.20;52.40
56729;DHT22;42612;52.232;7.560;2022-12-18T05:16:06;0.20;52.40
56729;DHT22;42612;52.232;7.560;2022-12-18T05:18:32;0.20;52.40
56729;DHT22;42612;52.232;7.560;2022-12-18T05:20:58;0.20;52.40
56729;DHT22;42612;52.232;7.560;2022-12-18T05:23:24;0.20;52.40
56729;DHT22;42612;52.232;7.560;2022-12-18T05:25:51;0.20;52.50
56729;DHT22;42612;52.232;7.560;2022-12-18T05:28:17;0.30;52.60
56729;DHT22;42612;52.232;7.560;2022-12-18T05:30:46;0.30;52.60
56729;DHT22;42612;52.232;7.560;2022-12-18T05:33:13;0.30;52.60
56729;DHT22;42612;52.232;7.560;2022-12-18T05:35:39;0.30;52.60
56729;DHT22;42612;52.232;7.560;2022-12-18T05:38:04;0.30;52.50
56729;DHT22;42612;52.232;7.560;2022-12-18T05:40:30;0.30;52.50
56729;DHT22;42612;52.232;7.560;2022-12-18T05:42:55;0.30;52.60
56729;DHT22;42612;52.232;7.560;2022-12-18T05:45:21;0.30;52.70
56729;DHT22;42612;52.232;7.560;2022-12-18T05:47:47;0.30;52.80
56729;DHT22;42612;52.232;7.560;2022-12-18T05:50:12;0.30;52.80
56729;DHT22;42612;52.232;7.560;2022-12-18T05:52:38;0.30;52.80
56729;DHT22;42612;52.232;7.560;2022-12-18T05:55:03;0.30;52.80
56729;DHT22;42612;52.232;7.560;2022-12-18T05:57:30;0.40;52.80
56729;DHT22;42612;52.232;7.560;2022-12-18T05:59:55;0.40;52.90
56729;DHT22;42612;52.232;7.560;2022-12-18T06:02:21;0.40;52.80
56729;DHT22;42612;52.232;7.560;2022-12-18T06:04:46;0.40;52.80
56729;DHT22;42612;52.232;7.560;2022-12-18T06:07:12;0.40;52.80
56729;DHT22;42612;52.232;7.560;2022-12-18T06:09:38;0.40;52.80
56729;DHT22;42612;52.232;7.560;2022-12-18T06:12:03;0.40;52.80
56729;DHT22;42612;52.232;7.560;2022-12-18T06:14:29;0.40;52.70
56729;DHT22;42612;52.232;7.560;2022-12-18T06:16:55;0.40;52.70
56729;DHT22;42612;52.232;7.560;2022-12-18T06:19:20;0.40;52.80
56729;DHT22;42612;52.232;7.560;2022-12-18T06:21:46;0.40;52.70
56729;DHT22;42612;52.232;7.560;2022-12-18T06:24:12;0.40;52.70
56729;DHT22;42612;52.232;7.560;2022-12-18T06:26:38;0.40;52.80
56729;DHT22;42612;52.232;7.560;2022-12-18T06:29:04;0.40;52.80
56729;DHT22;42612;52.232;7.560;2022-12-18T06:31:30;0.50;52.90
56729;DHT22;42612;52.232;7.560;2022-12-18T06:33:55;0.50;52.80
56729;DHT22;42612;52.232;7.560;2022-12-18T06:36:21;0.50;52.90
56729;DHT22;42612;52.232;7.560;2022-12-18T06:38:47;0.50;52.90
56729;DHT22;42612;52.232;7.560;2022-12-18T06:41:14;0.50;53.00
56729;DHT22;42612;52.232;7.560;2022-12-18T06:43:40;0.50;52.90
56729;DHT22;42612;52.232;7.560;2022-12-18T06:46:06;0.50;53.00
56729;DHT22;42612;52.232;7.560;2022-12-18T06:48:32;0.50;53.00
56729;DHT22;42612;52.232;7.560;2022-12-18T06:50:58;0.50;52.90
56729;DHT22;42612;52.232;7.560;2022-12-18T06:53:24;0.50;52.90
56729;DHT22;42612;52.232;7.560;2022-12-18T06:55:49;0.50;53.00
56729;DHT22;42612;52.232;7.560;2022-12-18T06:58:15;0.60;53.00
56729;DHT22;42612;52.232;7.560;2022-12-18T07:00:41;0.60;53.10
56729;DHT22;42612;52.232;7.560;2022-12-18T07:03:06;0.60;53.10
56729;DHT22;42612;52.232;7.560;2022-12-18T07:05:32;0.60;53.20
56729;DHT22;42612;52.232;7.560;2022-12-18T07:07:58;0.60;53.30
56729;DHT22;42612;52.232;7.560;2022-12-18T07:10:24;0.60;53.10
56729;DHT22;42612;52.232;7.560;2022-12-18T07:12:49;0.70;53.30
56729;DHT22;42612;52.232;7.560;2022-12-18T07:15:15;0.70;53.30
56729;DHT22;42612;52.232;7.560;2022-12-18T07:17:40;0.70;53.30
56729;DHT22;42612;52.232;7.560;2022-12-18T07:20:06;0.80;53.30
56729;DHT22;42612;52.232;7.560;2022-12-18T07:22:32;0.80;53.30
56729;DHT22;42612;52.232;7.560;2022-12-18T07:24:58;0.80;53.30
56729;DHT22;42612;52.232;7.560;2022-12-18T07:27:24;0.80;53.30
56729;DHT22;42612;52.232;7.560;2022-12-18T07:29:49;0.80;53.20
56729;DHT22;42612;52.232;7.560;2022-12-18T07:32:15;0.90;53.40
56729;DHT22;42612;52.232;7.560;2022-12-18T07:34:41;0.90;53.50
56729;DHT22;42612;52.232;7.560;2022-12-18T07:37:06;0.90;53.40
56729;DHT22;42612;52.232;7.560;2022-12-18T07:39:32;0.90;53.30
56729;DHT22;42612;52.232;7.560;2022-12-18T07:41:57;1.00;53.30
56729;DHT22;42612;52.232;7.560;2022-12-18T07:44:42;1.00;53.20
56729;DHT22;42612;52.232;7.560;2022-12-18T07:47:07;1.00;53.30
56729;DHT22;42612;52.232;7.560;2022-12-18T07:49:33;1.00;53.20
56729;DHT22;42612;52.232;7.560;2022-12-18T07:51:59;1.00;53.30
56729;DHT22;42612;52.232;7.560;2022-12-18T07:54:24;1.00;53.20
56729;DHT22;42612;52.232;7.560;2022-12-18T07:56:50;1.00;53.20
56729;DHT22;42612;52.232;7.560;2022-12-18T07:59:17;1.00;53.20
56729;DHT22;42612;52.232;7.560;2022-12-18T08:01:43;1.00;53.20
56729;DHT22;42612;52.232;7.560;2022-12-18T08:04:08;1.00;53.10
56729;DHT22;42612;52.232;7.560;2022-12-18T08:06:34;1.00;53.20
56729;DHT22;42612;52.232;7.560;2022-12-18T08:08:59;1.00;53.30
56729;DHT22;42612;52.232;7.560;2022-12-18T08:11:26;1.00;53.30
56729;DHT22;42612;52.232;7.560;2022-12-18T08:13:52;1.00;53.30
56729;DHT22;42612;52.232;7.560;2022-12-18T08:16:18;1.00;53.40
56729;DHT22;42612;52.232;7.560;2022-12-18T08:18:44;1.10;53.50
56729;DHT22;42612;52.232;7.560;2022-12-18T08:21:11;1.10;53.60
56729;DHT22;42612;52.232;7.560;2022-12-18T08:23:41;1.10;53.60
56729;DHT22;42612;52.232;7.560;2022-12-18T08:26:07;1.20;53.80
56729;DHT22;42612;52.232;7.560;2022-12-18T08:28:33;1.20;53.80
56729;DHT22;42612;52.232;7.560;2022-12-18T08:30:59;1.30;53.90
56729;DHT22;42612;52.232;7.560;2022-12-18T08:33:25;1.30;53.90
56729;DHT22;42612;52.232;7.560;2022-12-18T08:35:51;1.30;54.00
56729;DHT22;42612;52.232;7.560;2022-12-18T08:38:17;1.40;54.00
56729;DHT22;42612;52.232;7.560;2022-12-18T08:40:43;1.50;54.00
56729;DHT22;42612;52.232;7.560;2022-12-18T08:43:11;1.50;54.10
56729;DHT22;42612;52.232;7.560;2022-12-18T08:45:55;1.50;54.00
56729;DHT22;42612;52.232;7.560;2022-12-18T08:48:21;1.60;54.10
56729;DHT22;42612;52.232;7.560;2022-12-18T08:50:54;1.60;54.10
56729;DHT22;42612;52.232;7.560;2022-12-18T08:53:23;1.70;54.20
56729;DHT22;42612;52.232;7.560;2022-12-18T08:55:52;1.70;54.20
56729;DHT22;42612;52.232;7.560;2022-12-18T08:58:17;1.70;54.20
56729;DHT22;42612;52.232;7.560;2022-12-18T09:00:43;1.80;54.90
56729;DHT22;42612;52.232;7.560;2022-12-18T09:03:12;1.80;54.20
56729;DHT22;42612;52.232;7.560;2022-12-18T09:05:38;1.80;54.20
56729;DHT22;42612;52.232;7.560;2022-12-18T09:08:04;1.80;54.10
56729;DHT22;42612;52.232;7.560;2022-12-18T09:10:29;1.90;54.20
56729;DHT22;42612;52.232;7.560;2022-12-18T09:12:55;1.90;54.20
56729;DHT22;42612;52.232;7.560;2022-12-18T09:15:21;1.90;54.30
56729;DHT22;42612;52.232;7.560;2022-12-18T09:17:47;1.90;54.30
56729;DHT22;42612;52.232;7.560;2022-12-18T09:20:13;1.90;54.30
56729;DHT22;42612;52.232;7.560;2022-12-18T09:22:39;2.00;54.40
56729;DHT22;42612;52.232;7.560;2022-12-18T09:25:04;2.00;54.50
56729;DHT22;42612;52.232;7.560;2022-12-18T09:27:33;2.00;54.50
56729;DHT22;42612;52.232;7.560;2022-12-18T09:29:59;2.00;54.50
56729;DHT22;42612;52.232;7.560;2022-12-18T09:32:25;2.00;54.60
56729;DHT22;42612;52.232;7.560;2022-12-18T09:34:51;2.10;54.70
56729;DHT22;42612;52.232;7.560;2022-12-18T09:37:16;2.10;54.80
56729;DHT22;42612;52.232;7.560;2022-12-18T09:39:42;2.20;54.90
56729;DHT22;42612;52.232;7.560;2022-12-18T09:42:09;2.20;54.90
56729;DHT22;42612;52.232;7.560;2022-12-18T09:44:41;2.30;55.00
56729;DHT22;42612;52.232;7.560;2022-12-18T09:49:44;2.20;54.90
56729;DHT22;42612;52.232;7.560;2022-12-18T09:52:12;2.40;55.00
56729;DHT22;42612;52.232;7.560;2022-12-18T09:54:42;2.40;55.00
56729;DHT22;42612;52.232;7.560;2022-12-18T09:57:13;2.50;55.10
56729;DHT22;42612;52.232;7.560;2022-12-18T09:59:40;2.50;55.10
56729;DHT22;42612;52.232;7.560;2022-12-18T10:02:17;2.60;55.20
56729;DHT22;42612;52.232;7.560;2022-12-18T10:04:48;2.60;55.40
56729;DHT22;42612;52.232;7.560;2022-12-18T10:07:40;2.70;55.40
56729;DHT22;42612;52.232;7.560;2022-12-18T10:10:15;2.70;55.40
56729;DHT22;42612;52.232;7.560;2022-12-18T10:18:28;2.90;55.60
56729;DHT22;42612;52.232;7.560;2022-12-18T10:21:08;2.90;55.60
56729;DHT22;42612;52.232;7.560;2022-12-18T10:23:48;3.00;55.60
56729;DHT22;42612;52.232;7.560;2022-12-18T10:26:25;3.10;55.70
56729;DHT22;42612;52.232;7.560;2022-12-18T10:28:50;3.20;55.80
56729;DHT22;42612;52.232;7.560;2022-12-18T10:31:17;3.20;55.70
56729;DHT22;42612;52.232;7.560;2022-12-18T10:33:44;3.30;55.60
56729;DHT22;42612;52.232;7.560;2022-12-18T10:36:10;3.30;55.50
56729;DHT22;42612;52.232;7.560;2022-12-18T10:38:36;3.40;55.50
56729;DHT22;42612;52.232;7.560;2022-12-18T10:41:06;3.40;55.50
56729;DHT22;42612;52.232;7.560;2022-12-18T10:43:37;3.50;55.50
56729;DHT22;42612;52.232;7.560;2022-12-18T10:48:34;3.60;55.40
56729;DHT22;42612;52.232;7.560;2022-12-18T10:51:02;3.60;55.30
56729;DHT22;42612;52.232;7.560;2022-12-18T10:53:29;3.60;55.30
56729;DHT22;42612;52.232;7.560;2022-12-18T10:55:57;3.60;55.30
56729;DHT22;42612;52.232;7.560;2022-12-18T11:01:15;3.70;55.30
56729;DHT22;42612;52.232;7.560;2022-12-18T11:03:43;3.70;55.30
56729;DHT22;42612;52.232;7.560;2022-12-18T11:06:11;3.70;55.30
56729;DHT22;42612;52.232;7.560;2022-12-18T11:11:26;3.80;55.40
56729;DHT22;42612;52.232;7.560;2022-12-18T11:14:02;3.80;55.40
56729;DHT22;42612;52.232;7.560;2022-12-18T11:16:32;3.80;55.30
56729;DHT22;42612;52.232;7.560;2022-12-18T11:20:02;3.90;55.40
56729;DHT22;42612;52.232;7.560;2022-12-18T11:21:59;3.90;55.30
56729;DHT22;42612;52.232;7.560;2022-12-18T11:27:00;3.90;55.40
56729;DHT22;42612;52.232;7.560;2022-12-18T11:29:31;3.90;55.30
56729;DHT22;42612;52.232;7.560;2022-12-18T11:34:49;4.00;55.30
56729;DHT22;42612;52.232;7.560;2022-12-18T11:37:16;4.00;56.00
56729;DHT22;42612;52.232;7.560;2022-12-18T11:39:46;4.00;55.40
56729;DHT22;42612;52.232;7.560;2022-12-18T11:42:27;4.00;55.30
56729;DHT22;42612;52.232;7.560;2022-12-18T11:47:42;4.10;55.30
56729;DHT22;42612;52.232;7.560;2022-12-18T11:50:12;4.10;55.30
56729;DHT22;42612;52.232;7.560;2022-12-18T11:52:40;4.10;55.30
56729;DHT22;42612;52.232;7.560;2022-12-18T11:55:13;4.10;55.30
56729;DHT22;42612;52.232;7.560;2022-12-18T11:57:51;4.20;56.00
56729;DHT22;42612;52.232;7.560;2022-12-18T12:00:42;4.20;55.30
56729;DHT22;42612;52.232;7.560;2022-12-18T12:06:19;4.20;55.10
56729;DHT22;42612;52.232;7.560;2022-12-18T12:17:18;4.30;55.10
56729;DHT22;42612;52.232;7.560;2022-12-18T12:19:55;4.30;55.10
56729;DHT22;42612;52.232;7.560;2022-12-18T12:23:26;4.30;55.10
56729;DHT22;42612;52.232;7.560;2022-12-18T12:25:32;4.30;55.00
56729;DHT22;42612;52.232;7.560;2022-12-18T12:30:55;4.30;55.00
56729;DHT22;42612;52.232;7.560;2022-12-18T12:36:19;4.30;55.00
56729;DHT22;42612;52.232;7.560;2022-12-18T12:39:07;4.30;55.00
56729;DHT22;42612;52.232;7.560;2022-12-18T12:41:35;4.30;55.00
56729;DHT22;42612;52.232;7.560;2022-12-18T12:44:22;4.30;55.00
56729;DHT22;42612;52.232;7.560;2022-12-18T12:46:50;4.30;54.90
56729;DHT22;42612;52.232;7.560;2022-12-18T12:49:18;4.30;54.90
56729;DHT22;42612;52.232;7.560;2022-12-18T12:54:54;4.30;55.00
56729;DHT22;42612;52.232;7.560;2022-12-18T12:57:30;4.30;54.90
56729;DHT22;42612;52.232;7.560;2022-12-18T13:00:06;4.30;54.90
56729;DHT22;42612;52.232;7.560;2022-12-18T13:07:50;4.30;54.90
56729;DHT22;42612;52.232;7.560;2022-12-18T13:15:30;4.30;54.80
56729;DHT22;42612;52.232;7.560;2022-12-18T13:18:17;4.40;54.80
56729;DHT22;42612;52.232;7.560;2022-12-18T13:23:36;4.40;54.70
56729;DHT22;42612;52.232;7.560;2022-12-18T13:31:14;4.40;54.70
56729;DHT22;42612;52.232;7.560;2022-12-18T13:36:44;4.40;54.60
56729;DHT22;42612;52.232;7.560;2022-12-18T13:39:11;4.40;54.70
56729;DHT22;42612;52.232;7.560;2022-12-18T13:41:40;4.40;54.60
56729;DHT22;42612;52.232;7.560;2022-12-18T13:44:10;4.50;54.60
56729;DHT22;42612;52.232;7.560;2022-12-18T13:46:57;4.50;54.60
56729;DHT22;42612;52.232;7.560;2022-12-18T13:51:54;4.60;54.60
56729;DHT22;42612;52.232;7.560;2022-12-18T13:54:25;4.60;54.60
56729;DHT22;42612;52.232;7.560;2022-12-18T13:56:55;4.60;54.60
56729;DHT22;42612;52.232;7.560;2022-12-18T13:59:22;4.60;54.50
56729;DHT22;42612;52.232;7.560;2022-12-18T14:02:12;4.70;54.50
56729;DHT22;42612;52.232;7.560;2022-12-18T14:04:39;4.70;54.40
56729;DHT22;42612;52.232;7.560;2022-12-18T14:07:05;4.70;54.40
56729;DHT22;42612;52.232;7.560;2022-12-18T14:09:37;4.80;54.40
56729;DHT22;42612;52.232;7.560;2022-12-18T14:12:05;4.80;54.30
56729;DHT22;42612;52.232;7.560;2022-12-18T14:14:50;4.80;54.20
56729;DHT22;42612;52.232;7.560;2022-12-18T14:17:17;4.80;54.10
56729;DHT22;42612;52.232;7.560;2022-12-18T14:19:49;4.80;54.20
56729;DHT22;42612;52.232;7.560;2022-12-18T14:22:23;4.80;53.70
56729;DHT22;42612;52.232;7.560;2022-12-18T14:27:41;4.80;53.80
56729;DHT22;42612;52.232;7.560;2022-12-18T14:35:34;4.90;53.90
56729;DHT22;42612;52.232;7.560;2022-12-18T14:41:02;4.90;53.80
56729;DHT22;42612;52.232;7.560;2022-12-18T14:43:33;4.90;53.60
56729;DHT22;42612;52.232;7.560;2022-12-18T14:46:00;4.90;53.40
56729;DHT22;42612;52.232;7.560;2022-12-18T14:48:40;4.90;53.50
56729;DHT22;42612;52.232;7.560;2022-12-18T14:53:39;4.90;53.50
56729;DHT22;42612;52.232;7.560;2022-12-18T14:56:14;4.90;53.60
56729;DHT22;42612;52.232;7.560;2022-12-18T14:58:45;4.90;53.50
56729;DHT22;42612;52.232;7.560;2022-12-18T15:01:22;4.90;53.40
56729;DHT22;42612;52.232;7.560;2022-12-18T15:03:50;4.90;53.40
56729;DHT22;42612;52.232;7.560;2022-12-18T15:06:18;5.00;53.50
56729;DHT22;42612;52.232;7.560;2022-12-18T15:08:50;5.00;53.20
56729;DHT22;42612;52.232;7.560;2022-12-18T15:11:32;5.00;53.40
56729;DHT22;42612;52.232;7.560;2022-12-18T15:16:55;5.00;53.40
56729;DHT22;42612;52.232;7.560;2022-12-18T15:19:21;5.00;53.40
56729;DHT22;42612;52.232;7.560;2022-12-18T15:21:48;5.00;53.30
56729;DHT22;42612;52.232;7.560;2022-12-18T15:24:18;5.00;53.70
56729;DHT22;42612;52.232;7.560;2022-12-18T15:26:48;5.00;53.30
56729;DHT22;42612;52.232;7.560;2022-12-18T15:29:19;5.00;53.30
56729;DHT22;42612;52.232;7.560;2022-12-18T15:32:00;5.10;53.20
56729;DHT22;42612;52.232;7.560;2022-12-18T15:34:28;5.10;53.30
56729;DHT22;42612;52.232;7.560;2022-12-18T15:36:54;5.10;53.20
56729;DHT22;42612;52.232;7.560;2022-12-18T15:39:20;5.10;53.00
56729;DHT22;42612;52.232;7.560;2022-12-18T15:41:46;5.10;53.10
56729;DHT22;42612;52.232;7.560;2022-12-18T15:44:30;5.20;53.10
56729;DHT22;42612;52.232;7.560;2022-12-18T15:46:55;5.10;53.10
56729;DHT22;42612;52.232;7.560;2022-12-18T15:49:21;5.20;53.10
56729;DHT22;42612;52.232;7.560;2022-12-18T15:51:51;5.20;52.50
56729;DHT22;42612;52.232;7.560;2022-12-18T15:54:19;5.20;52.60
56729;DHT22;42612;52.232;7.560;2022-12-18T15:57:04;5.20;52.70
56729;DHT22;42612;52.232;7.560;2022-12-18T15:59:48;5.20;52.70
56729;DHT22;42612;52.232;7.560;2022-12-18T16:02:16;5.20;52.80
56729;DHT22;42612;52.232;7.560;2022-12-18T16:04:42;5.20;52.60
56729;DHT22;42612;52.232;7.560;2022-12-18T16:07:08;5.20;52.60
56729;DHT22;42612;52.232;7.560;2022-12-18T16:09:35;5.20;52.70
56729;DHT22;42612;52.232;7.560;2022-12-18T16:12:01;5.20;52.50
56729;DHT22;42612;52.232;7.560;2022-12-18T16:14:28;5.20;52.60
56729;DHT22;42612;52.232;7.560;2022-12-18T16:16:56;5.20;52.50
56729;DHT22;42612;52.232;7.560;2022-12-18T16:19:23;5.20;52.10
56729;DHT22;42612;52.232;7.560;2022-12-18T16:21:50;5.20;51.60
56729;DHT22;42612;52.232;7.560;2022-12-18T16:24:17;5.20;52.00
56729;DHT22;42612;52.232;7.560;2022-12-18T16:26:44;5.20;52.10
56729;DHT22;42612;52.232;7.560;2022-12-18T16:29:10;5.20;52.00
56729;DHT22;42612;52.232;7.560;2022-12-18T16:31:36;5.20;52.10
56729;DHT22;42612;52.232;7.560;2022-12-18T16:34:09;5.20;52.60
56729;DHT22;42612;52.232;7.560;2022-12-18T16:39:21;5.20;51.80
56729;DHT22;42612;52.232;7.560;2022-12-18T16:41:47;5.20;51.60
56729;DHT22;42612;52.232;7.560;2022-12-18T16:44:13;5.20;52.20
56729;DHT22;42612;52.232;7.560;2022-12-18T16:46:39;5.20;51.90
56729;DHT22;42612;52.232;7.560;2022-12-18T16:49:08;5.20;52.60
56729;DHT22;42612;52.232;7.560;2022-12-18T16:51:53;5.20;51.90
56729;DHT22;42612;52.232;7.560;2022-12-18T16:54:19;5.20;52.10
56729;DHT22;42612;52.232;7.560;2022-12-18T16:56:45;5.20;51.80
56729;DHT22;42612;52.232;7.560;2022-12-18T16:59:14;5.20;51.80
56729;DHT22;42612;52.232;7.560;2022-12-18T17:01:40;5.20;52.00
56729;DHT22;42612;52.232;7.560;2022-12-18T17:04:06;5.20;51.90
56729;DHT22;42612;52.232;7.560;2022-12-18T17:06:33;5.30;52.20
56729;DHT22;42612;52.232;7.560;2022-12-18T17:09:01;5.30;52.20
56729;DHT22;42612;52.232;7.560;2022-12-18T17:11:29;5.30;52.30
56729;DHT22;42612;52.232;7.560;2022-12-18T17:13:56;5.30;52.30
56729;DHT22;42612;52.232;7.560;2022-12-18T17:16:22;5.30;52.20
56729;DHT22;42612;52.232;7.560;2022-12-18T17:18:48;5.30;52.20
56729;DHT22;42612;52.232;7.560;2022-12-18T17:21:14;5.30;51.10
56729;DHT22;42612;52.232;7.560;2022-12-18T17:23:40;5.30;51.70
56729;DHT22;42612;52.232;7.560;2022-12-18T17:26:07;5.30;52.00
56729;DHT22;42612;52.232;7.560;2022-12-18T17:28:35;5.40;52.20
56729;DHT22;42612;52.232;7.560;2022-12-18T17:31:01;5.30;51.90
56729;DHT22;42612;52.232;7.560;2022-12-18T17:33:35;5.40;52.00
56729;DHT22;42612;52.232;7.560;2022-12-18T17:36:01;5.40;52.10
56729;DHT22;42612;52.232;7.560;2022-12-18T17:38:26;5.40;52.30
56729;DHT22;42612;52.232;7.560;2022-12-18T17:40:52;5.40;52.00
56729;DHT22;42612;52.232;7.560;2022-12-18T17:43:17;5.40;52.10
56729;DHT22;42612;52.232;7.560;2022-12-18T17:45:43;5.40;52.60
56729;DHT22;42612;52.232;7.560;2022-12-18T17:48:08;5.40;52.60